Terminal Aerodrome Forecast
Issued by NWS Wilmington, OH

Current Version | Previous Version | Text Only | Print | Product List | Glossary Off
Versions: 1 2 3 4 5 6 7 8 9 10 11 12 13 14 15 16 17 18 19 20 21

000
FTUS41 KILN 212338
TAFDAY
TAF
KDAY 212338Z 2200/2224 17007KT P6SM OVC120
     FM220800 12004KT P6SM SCT080 OVC150
     FM221400 08006KT P6SM OVC050
     FM222000 06009KT 6SM -SHRA BR OVC035
     FM222200 06011KT 5SM -SHRA BR OVC018=

USA.gov is the U.S. government's official web portal to all federal, state and local government web resources and services.